createdAt,value
2019-04-27T00:03:23.450Z,48.34
2019-04-27T00:08:28.528Z,48.56
2019-04-27T00:13:34.830Z,49.32
2019-04-27T00:18:56.415Z,50.04
2019-04-27T00:23:56.922Z,51.37
2019-04-27T00:28:58.637Z,51.68
2019-04-27T00:34:00.963Z,52.30
2019-04-27T00:39:16.110Z,53.02
2019-04-27T00:44:18.226Z,52.98
2019-04-27T00:49:21.182Z,52.78
2019-04-27T00:54:23.992Z,52.80
2019-04-27T00:59:33.882Z,52.97
2019-04-27T01:04:36.486Z,53.23
2019-04-27T01:09:38.907Z,53.43
2019-04-27T01:14:40.654Z,53.86
2019-04-27T01:19:43.871Z,54.42
2019-04-27T01:24:45.545Z,54.93
2019-04-27T01:29:49.845Z,54.97
2019-04-27T01:34:51.456Z,55.48
2019-04-27T01:39:53.066Z,55.60
2019-04-27T01:44:54.851Z,56.24
2019-04-27T01:49:58.493Z,56.57
2019-04-27T01:55:00.472Z,56.81
2019-04-27T02:00:05.522Z,56.90
2019-04-27T02:05:14.575Z,57.33
2019-04-27T02:10:19.006Z,57.70
2019-04-27T02:15:21.171Z,57.68
2019-04-27T02:20:22.884Z,57.73
2019-04-27T02:25:24.667Z,57.55
2019-04-27T02:30:37.356Z,57.54
2019-04-27T02:35:41.821Z,57.59
2019-04-27T02:40:52.853Z,58.24
2019-04-27T02:45:54.909Z,58.56
2019-04-27T02:50:59.905Z,58.94
2019-04-27T02:56:01.728Z,59.18
2019-04-27T03:01:03.665Z,59.08
2019-04-27T03:06:05.542Z,59.28
2019-04-27T03:11:09.750Z,59.02
2019-04-27T03:16:13.232Z,59.86
2019-04-27T03:21:25.097Z,59.53
2019-04-27T03:26:27.408Z,59.38
2019-04-27T03:31:32.867Z,59.45
2019-04-27T03:36:33.150Z,60.01
2019-04-27T03:41:34.871Z,60.35
2019-04-27T03:46:36.684Z,60.42
2019-04-27T03:51:40.391Z,60.71
2019-04-27T03:56:44.148Z,61.26
2019-04-27T04:01:45.764Z,61.22
2019-04-27T04:06:49.481Z,62.01
2019-04-27T04:11:53.114Z,62.97
2019-04-27T04:17:02.678Z,64.60
2019-04-27T04:22:03.300Z,65.05
2019-04-27T04:27:05.165Z,66.35
2019-04-27T04:32:06.775Z,68.46
2019-04-27T04:37:09.290Z,70.09
2019-04-27T04:42:31.356Z,70.49
2019-04-27T04:47:36.104Z,71.19
2019-04-27T04:52:39.585Z,71.39
2019-04-27T04:57:41.706Z,71.53
2019-04-27T05:02:43.333Z,72.12
2019-04-27T05:07:44.946Z,71.89
2019-04-27T05:12:46.550Z,72.13
2019-04-27T05:17:50.809Z,72.21
2019-04-27T05:22:52.062Z,71.96
2019-04-27T05:27:53.812Z,72.11
2019-04-27T05:32:55.427Z,71.79
2019-04-27T05:38:02.479Z,71.11
2019-04-27T05:43:00.883Z,70.65
2019-04-27T05:48:09.377Z,71.15
2019-04-27T05:53:11.110Z,70.42
2019-04-27T05:58:12.774Z,71.88
2019-04-27T06:03:14.390Z,72.70
2019-04-27T06:08:16.303Z,72.22
2019-04-27T06:13:18.991Z,72.01
2019-04-27T06:18:20.845Z,72.13
2019-04-27T06:23:22.536Z,72.35
2019-04-27T06:28:24.266Z,71.91
2019-04-27T06:33:31.981Z,70.77
2019-04-27T06:38:29.574Z,71.69
2019-04-27T06:43:31.283Z,70.90
2019-04-27T06:48:32.926Z,71.55
2019-04-27T06:53:34.538Z,71.62
2019-04-27T06:58:36.250Z,70.94
2019-04-27T07:03:39.555Z,70.24
2019-04-27T07:08:41.473Z,69.52
2019-04-27T07:13:43.078Z,68.87
2019-04-27T07:18:44.683Z,68.19
2019-04-27T07:23:59.371Z,69.44
2019-04-27T07:29:01.741Z,69.02
2019-04-27T07:34:03.555Z,68.54
2019-04-27T07:39:06.610Z,68.67
2019-04-27T07:44:19.455Z,67.97
2019-04-27T07:49:21.162Z,68.01
2019-04-27T07:54:22.876Z,67.78
2019-04-27T07:59:24.538Z,69.24
2019-04-27T08:04:26.291Z,68.70
2019-04-27T08:09:29.090Z,68.69
2019-04-27T08:14:30.821Z,69.74
2019-04-27T08:19:32.426Z,68.67
2019-04-27T08:24:34.249Z,70.13
2019-04-27T08:29:45.117Z,70.31
2019-04-27T08:34:46.778Z,70.39
2019-04-27T08:39:50.836Z,70.49
2019-04-27T08:44:51.911Z,71.48
2019-04-27T08:49:53.547Z,73.92
2019-04-27T08:54:55.458Z,72.79
2019-04-27T08:59:59.480Z,72.56
2019-04-27T09:05:00.833Z,72.20
2019-04-27T09:10:23.277Z,72.32
2019-04-27T09:15:32.682Z,71.45
2019-04-27T09:20:39.006Z,71.02
2019-04-27T09:25:41.059Z,72.38
2019-04-27T09:30:42.819Z,71.82
2019-04-27T09:35:44.472Z,70.99
2019-04-27T09:40:46.580Z,71.03
2019-04-27T09:45:48.285Z,71.35
2019-04-27T09:50:50.053Z,69.87
2019-04-27T09:55:51.883Z,70.42
2019-04-27T10:00:53.605Z,69.80
2019-04-27T10:05:57.029Z,70.37
2019-04-27T10:10:58.975Z,69.97
2019-04-27T10:16:00.695Z,70.16
2019-04-27T10:21:02.727Z,69.19
2019-04-27T10:26:05.850Z,69.47
2019-04-27T10:31:07.893Z,71.11
2019-04-27T10:36:09.547Z,68.83
2019-04-27T10:41:11.209Z,68.84
2019-04-27T10:46:12.921Z,66.89
2019-04-27T10:51:16.022Z,67.38
2019-04-27T10:56:17.764Z,67.82
2019-04-27T11:01:19.674Z,66.05
2019-04-27T11:06:39.495Z,65.14
2019-04-27T11:11:41.244Z,65.10
2019-04-27T11:16:43.154Z,66.22
2019-04-27T11:21:44.867Z,63.82
2019-04-27T11:26:46.676Z,64.55
2019-04-27T11:31:48.525Z,63.67
2019-04-27T11:36:52.239Z,63.79
2019-04-27T11:41:55.391Z,64.88
2019-04-27T11:46:57.003Z,63.15
2019-04-27T11:51:58.976Z,63.91
2019-04-27T11:57:00.680Z,62.46
2019-04-27T12:02:02.795Z,63.48
2019-04-27T12:07:06.454Z,64.38
2019-04-27T12:12:16.628Z,64.68
2019-04-27T12:17:13.266Z,64.73
2019-04-27T12:22:16.378Z,64.14
2019-04-27T12:27:18.294Z,65.20
2019-04-27T12:32:20.155Z,66.08
2019-04-27T12:37:21.767Z,66.72
2019-04-27T12:42:23.612Z,67.11
2019-04-27T12:47:26.292Z,66.19
2019-04-27T12:52:28.306Z,64.42
2019-04-27T12:57:31.819Z,65.00
2019-04-27T13:02:34.874Z,66.70
2019-04-27T13:07:36.689Z,66.24
2019-04-27T13:12:38.525Z,66.15
2019-04-27T13:17:40.467Z,66.55
2019-04-27T13:22:42.174Z,66.54
2019-04-27T13:27:43.783Z,65.63
2019-04-27T13:32:48.019Z,66.75
2019-04-27T13:37:52.705Z,67.05
2019-04-27T13:42:57.561Z,67.34
2019-04-27T13:48:15.543Z,67.64
2019-04-27T13:53:17.385Z,67.94
2019-04-27T13:58:18.998Z,68.30
2019-04-27T14:03:21.070Z,68.81
2019-04-27T14:08:23.490Z,68.43
2019-04-27T14:13:25.094Z,68.45
2019-04-27T14:18:26.740Z,69.32
2019-04-27T14:23:30.251Z,69.96
2019-04-27T14:28:31.874Z,70.37
2019-04-27T14:33:33.549Z,70.59
2019-04-27T14:38:35.291Z,70.81
2019-04-27T14:43:37.402Z,70.48
2019-04-27T14:48:39.327Z,70.81
2019-04-27T14:53:41.170Z,71.25
2019-04-27T14:58:42.774Z,70.87
2019-04-27T15:03:44.483Z,71.41
2019-04-27T15:08:47.080Z,71.91
2019-04-27T15:13:51.030Z,72.26
2019-04-27T15:18:59.980Z,71.86
2019-04-27T15:24:09.380Z,74.75
2019-04-27T15:29:08.614Z,76.07
2019-04-27T15:34:11.118Z,76.24
2019-04-27T15:39:22.508Z,76.45
2019-04-27T15:44:23.807Z,76.63
2019-04-27T15:49:25.575Z,76.42
2019-04-27T15:54:31.976Z,76.23
2019-04-27T15:59:37.857Z,75.83
2019-04-27T16:04:34.814Z,75.17
2019-04-27T16:09:36.427Z,75.17
2019-04-27T16:14:40.985Z,73.97
2019-04-27T16:19:46.828Z,73.12
2019-04-27T16:24:45.476Z,73.16
2019-04-27T16:29:49.116Z,73.28
2019-04-27T16:34:51.378Z,73.29
2019-04-27T16:39:53.085Z,72.05
2019-04-27T16:44:54.702Z,72.53
2019-04-27T16:49:56.594Z,72.92
2019-04-27T16:55:00.613Z,72.58
2019-04-27T17:00:08.355Z,72.35
2019-04-27T17:05:10.917Z,72.64
2019-04-27T17:10:16.283Z,72.94
2019-04-27T17:15:35.788Z,72.70
2019-04-27T17:20:38.308Z,72.82
2019-04-27T17:25:44.312Z,73.58
2019-04-27T17:30:45.218Z,73.83
2019-04-27T17:35:47.134Z,74.13
2019-04-27T17:40:51.502Z,73.99
2019-04-27T17:45:52.447Z,74.60
2019-04-27T17:50:55.900Z,74.87
2019-04-27T17:56:02.681Z,75.25
2019-04-27T18:01:01.865Z,75.23
2019-04-27T18:06:05.020Z,75.51
2019-04-27T18:11:08.633Z,75.66
2019-04-27T18:16:10.611Z,76.02
2019-04-27T18:21:13.267Z,76.54
2019-04-27T18:26:19.262Z,76.94
2019-04-27T18:31:21.066Z,77.17
2019-04-27T18:36:22.852Z,77.25
2019-04-27T18:41:24.694Z,77.26
2019-04-27T18:46:28.202Z,77.65
2019-04-27T18:51:39.089Z,77.77
2019-04-27T18:56:42.292Z,77.78
2019-04-27T19:01:44.034Z,77.91
2019-04-27T19:06:45.738Z,77.88
2019-04-27T19:11:56.220Z,77.69
2019-04-27T19:16:50.985Z,77.91
2019-04-27T19:21:52.596Z,78.09
2019-04-27T19:26:58.867Z,77.98
2019-04-27T19:32:02.553Z,78.11
2019-04-27T19:37:04.438Z,78.24
2019-04-27T19:42:06.551Z,78.00
2019-04-27T19:47:10.284Z,78.19
2019-04-27T19:52:11.786Z,78.04
2019-04-27T19:57:13.495Z,78.49
2019-04-27T20:02:18.486Z,78.48
2019-04-27T20:07:20.862Z,78.66
2019-04-27T20:12:22.868Z,78.82
2019-04-27T20:17:26.792Z,79.04
2019-04-27T20:22:28.908Z,79.32
2019-04-27T20:27:32.191Z,79.48
2019-04-27T20:32:34.454Z,79.77
2019-04-27T20:37:45.982Z,80.06
2019-04-27T20:42:48.207Z,80.15
2019-04-27T20:47:52.405Z,80.26
2019-04-27T20:52:55.171Z,80.48
2019-04-27T20:58:02.007Z,80.32
2019-04-27T21:03:15.063Z,80.51
2019-04-27T21:08:18.682Z,80.58
2019-04-27T21:13:20.501Z,80.60
2019-04-27T21:18:22.109Z,80.48
2019-04-27T21:23:23.721Z,80.29
2019-04-27T21:28:25.562Z,80.02
2019-04-27T21:33:27.227Z,80.18
2019-04-27T21:38:29.942Z,80.42
2019-04-27T21:43:32.713Z,80.37
2019-04-27T21:48:34.543Z,80.42
2019-04-27T21:53:36.253Z,80.42
2019-04-27T21:58:37.964Z,80.23
2019-04-27T22:03:39.948Z,80.17
2019-04-27T22:08:41.770Z,79.76
2019-04-27T22:13:43.522Z,79.72
2019-04-27T22:18:45.334Z,79.55
2019-04-27T22:23:50.790Z,79.67
2019-04-27T22:28:52.365Z,79.70
2019-04-27T22:33:54.713Z,79.43
2019-04-27T22:38:58.438Z,79.61
2019-04-27T22:44:17.163Z,79.05
2019-04-27T22:49:18.762Z,79.32
2019-04-27T22:54:21.787Z,79.19
2019-04-27T22:59:25.510Z,78.85
2019-04-27T23:04:27.286Z,79.06
2019-04-27T23:09:29.999Z,78.48
2019-04-27T23:14:31.715Z,78.72
2019-04-27T23:19:33.431Z,78.19
2019-04-27T23:24:35.153Z,78.25
2019-04-27T23:29:36.768Z,77.92
2019-04-27T23:34:38.850Z,77.64
2019-04-27T23:39:40.554Z,78.06
2019-04-27T23:44:42.334Z,77.78
2019-04-27T23:49:43.937Z,77.79
2019-04-27T23:54:45.542Z,77.71
2019-04-27T23:59:47.232Z,78.26
